createdAt,value
2023-02-27T00:02:25.435Z,8.27
2023-02-27T00:04:52.097Z,8.23
2023-02-27T00:07:18.510Z,10.63
2023-02-27T00:09:44.834Z,9.30
2023-02-27T00:12:12.062Z,9.40
2023-02-27T00:14:38.465Z,8.10
2023-02-27T00:17:04.806Z,7.60
2023-02-27T00:19:31.127Z,7.60
2023-02-27T00:21:57.516Z,6.63
2023-02-27T00:24:23.883Z,7.10
2023-02-27T00:26:50.299Z,5.57
2023-02-27T00:29:16.644Z,6.07
2023-02-27T00:31:43.082Z,6.67
2023-02-27T00:34:09.480Z,7.67
2023-02-27T00:36:35.913Z,8.10
2023-02-27T00:39:02.384Z,7.97
2023-02-27T00:41:29.075Z,7.33
2023-02-27T00:43:55.512Z,6.80
2023-02-27T00:46:22.301Z,9.20
2023-02-27T00:48:48.712Z,7.10
2023-02-27T00:51:15.151Z,9.77
2023-02-27T00:53:41.542Z,7.63
2023-02-27T00:56:08.296Z,7.70
2023-02-27T00:58:34.625Z,6.93
2023-02-27T01:01:01.054Z,6.60
2023-02-27T01:03:27.674Z,7.70
2023-02-27T01:05:54.090Z,7.27
2023-02-27T01:08:20.729Z,6.03
2023-02-27T01:10:47.094Z,6.47
2023-02-27T01:13:13.472Z,8.07
2023-02-27T01:15:39.837Z,8.40
2023-02-27T01:18:06.142Z,7.40
2023-02-27T01:20:32.505Z,7.07
2023-02-27T01:22:58.831Z,8.07
2023-02-27T01:25:25.237Z,6.80
2023-02-27T01:27:51.632Z,6.57
2023-02-27T01:30:18.336Z,7.27
2023-02-27T01:32:45.342Z,7.23
2023-02-27T01:35:11.998Z,8.50
2023-02-27T01:37:38.868Z,9.73
2023-02-27T01:40:07.156Z,8.03
2023-02-27T01:42:33.776Z,8.80
2023-02-27T01:45:12.288Z,7.43
2023-02-27T01:47:44.214Z,8.07
2023-02-27T01:50:11.972Z,9.57
2023-02-27T01:52:41.160Z,5.40
2023-02-27T01:55:09.266Z,6.90
2023-02-27T01:57:36.177Z,4.63
2023-02-27T02:00:04.301Z,4.90
2023-02-27T02:02:37.723Z,5.70
2023-02-27T02:05:06.826Z,3.23
2023-02-27T02:07:35.232Z,4.67
2023-02-27T02:10:02.437Z,4.13
2023-02-27T02:12:33.824Z,6.67
2023-02-27T02:15:00.222Z,4.13
2023-02-27T02:17:45.802Z,4.33
2023-02-27T02:20:12.104Z,4.17
2023-02-27T02:22:50.859Z,3.57
2023-02-27T02:25:45.291Z,5.23
2023-02-27T02:29:01.824Z,7.07
2023-02-27T02:32:03.670Z,4.13
2023-02-27T02:34:39.225Z,5.13
2023-02-27T02:37:14.727Z,4.93
2023-02-27T02:40:08.335Z,4.97
2023-02-27T02:42:44.688Z,6.87
2023-02-27T02:45:14.185Z,5.23
2023-02-27T02:47:58.769Z,7.10
2023-02-27T02:50:33.423Z,4.77
2023-02-27T02:53:21.697Z,4.13
2023-02-27T02:55:53.350Z,4.47
2023-02-27T02:58:45.698Z,5.83
2023-02-27T03:01:21.565Z,3.33
2023-02-27T03:03:53.503Z,4.63
2023-02-27T03:06:33.300Z,6.07
2023-02-27T03:09:19.997Z,7.03
2023-02-27T03:11:51.064Z,10.17
2023-02-27T03:14:42.765Z,22.47
2023-02-27T03:17:18.143Z,15.37
2023-02-27T03:19:55.683Z,10.87
2023-02-27T03:22:28.448Z,13.73
2023-02-27T03:24:58.130Z,8.00
2023-02-27T03:27:30.399Z,6.40
2023-02-27T03:30:02.874Z,3.30
2023-02-27T03:32:38.434Z,4.00
2023-02-27T03:35:07.349Z,4.57
2023-02-27T03:38:01.137Z,5.20
2023-02-27T03:40:51.399Z,4.90
2023-02-27T03:43:44.812Z,3.80
2023-02-27T03:46:16.185Z,7.40
2023-02-27T03:48:44.632Z,3.63
2023-02-27T03:51:35.407Z,4.33
2023-02-27T03:54:16.965Z,4.70
2023-02-27T03:56:52.913Z,3.70
2023-02-27T03:59:19.410Z,4.77
2023-02-27T04:01:45.928Z,5.23
2023-02-27T04:04:16.960Z,5.27
2023-02-27T04:07:10.889Z,4.63
2023-02-27T04:10:14.132Z,5.20
2023-02-27T04:13:01.889Z,4.67
2023-02-27T04:15:52.851Z,4.80
2023-02-27T04:18:38.056Z,5.63
2023-02-27T04:21:10.693Z,12.60
2023-02-27T04:23:58.690Z,5.33
2023-02-27T04:26:43.738Z,4.10
2023-02-27T04:29:31.186Z,6.07
2023-02-27T04:32:04.603Z,3.77
2023-02-27T04:34:31.035Z,6.47
2023-02-27T04:37:08.406Z,3.50
2023-02-27T04:39:41.943Z,3.53
2023-02-27T04:42:19.334Z,4.37
2023-02-27T04:44:48.069Z,5.60
2023-02-27T04:47:16.798Z,7.57
2023-02-27T04:50:16.712Z,3.90
2023-02-27T04:52:49.978Z,7.73
2023-02-27T04:55:28.058Z,2.80
2023-02-27T04:58:02.985Z,3.23
2023-02-27T05:00:32.929Z,6.13
2023-02-27T05:03:09.273Z,4.47
2023-02-27T05:05:38.169Z,6.37
2023-02-27T05:08:16.680Z,3.47
2023-02-27T05:10:46.756Z,7.47
2023-02-27T05:13:18.719Z,4.43
2023-02-27T05:16:33.081Z,5.43
2023-02-27T05:19:01.447Z,5.23
2023-02-27T05:21:34.260Z,4.13
2023-02-27T05:24:14.023Z,5.63
2023-02-27T05:27:01.461Z,3.80
2023-02-27T05:29:33.161Z,10.97
2023-02-27T05:32:34.272Z,5.80
2023-02-27T05:35:09.677Z,6.43
2023-02-27T05:37:56.636Z,3.60
2023-02-27T05:40:27.553Z,6.57
2023-02-27T05:43:05.575Z,6.30
2023-02-27T05:45:34.708Z,5.57
2023-02-27T05:48:07.496Z,4.97
2023-02-27T05:50:36.528Z,5.60
2023-02-27T05:53:09.198Z,3.47
2023-02-27T05:55:39.372Z,4.10
2023-02-27T05:58:08.527Z,3.30
2023-02-27T06:00:43.626Z,4.13
2023-02-27T06:03:10.134Z,5.13
2023-02-27T06:05:38.376Z,3.03
2023-02-27T06:08:04.748Z,4.90
2023-02-27T06:10:31.362Z,7.53
2023-02-27T06:12:57.743Z,8.40
2023-02-27T06:15:24.143Z,6.50
2023-02-27T06:17:50.558Z,3.90
2023-02-27T06:20:17.223Z,5.47
2023-02-27T06:22:43.644Z,3.20
2023-02-27T06:25:10.091Z,3.60
2023-02-27T06:27:36.706Z,3.93
2023-02-27T06:30:03.518Z,3.33
2023-02-27T06:32:30.165Z,6.60
2023-02-27T06:34:56.629Z,7.63
2023-02-27T06:37:23.144Z,3.37
2023-02-27T06:39:49.575Z,5.10
2023-02-27T06:42:16.443Z,4.13
2023-02-27T06:44:42.767Z,6.50
2023-02-27T06:47:09.455Z,4.63
2023-02-27T06:49:36.043Z,4.83
2023-02-27T06:52:02.375Z,6.53
2023-02-27T06:54:28.746Z,4.93
2023-02-27T06:56:55.110Z,4.23
2023-02-27T06:59:21.725Z,4.37
2023-02-27T07:01:48.423Z,6.13
2023-02-27T07:04:15.913Z,3.77
2023-02-27T07:07:34.017Z,6.20
2023-02-27T07:09:28.688Z,14.17
2023-02-27T07:11:55.144Z,4.90
2023-02-27T07:14:21.853Z,9.40
2023-02-27T07:16:50.893Z,6.40
2023-02-27T07:19:18.564Z,5.70
2023-02-27T07:21:45.131Z,4.67
2023-02-27T07:24:11.851Z,9.47
2023-02-27T07:26:38.319Z,7.77
2023-02-27T07:29:05.266Z,5.50
2023-02-27T07:31:32.290Z,4.97
2023-02-27T07:33:58.796Z,5.23
2023-02-27T07:36:25.512Z,4.37
2023-02-27T07:38:51.958Z,7.67
2023-02-27T07:41:29.979Z,4.07
2023-02-27T07:43:57.286Z,3.67
2023-02-27T07:46:24.797Z,6.23
2023-02-27T07:48:51.209Z,5.03
2023-02-27T07:51:18.578Z,3.87
2023-02-27T07:53:44.987Z,3.53
2023-02-27T07:56:11.515Z,4.50
2023-02-27T07:58:37.954Z,7.63
2023-02-27T08:01:04.466Z,7.40
2023-02-27T08:03:30.781Z,4.73
2023-02-27T08:05:57.225Z,4.80
2023-02-27T08:08:23.839Z,7.97
2023-02-27T08:10:50.460Z,6.57
2023-02-27T08:13:18.025Z,3.20
2023-02-27T08:15:47.352Z,5.97
2023-02-27T08:18:13.775Z,3.83
2023-02-27T08:20:40.157Z,5.90
2023-02-27T08:23:06.977Z,4.17
2023-02-27T08:25:33.539Z,3.53
2023-02-27T08:27:59.927Z,6.20
2023-02-27T08:30:26.257Z,6.33
2023-02-27T08:32:52.846Z,4.70
2023-02-27T08:35:19.179Z,6.17
2023-02-27T08:37:45.558Z,5.97
2023-02-27T08:40:12.270Z,3.23
2023-02-27T08:42:38.803Z,3.97
2023-02-27T08:45:05.574Z,3.17
2023-02-27T08:47:32.090Z,3.00
2023-02-27T08:49:58.436Z,4.97
2023-02-27T08:52:25.144Z,7.10
2023-02-27T08:54:51.841Z,2.50
2023-02-27T08:57:18.198Z,3.80
2023-02-27T08:59:44.684Z,3.13
2023-02-27T09:02:11.607Z,6.37
2023-02-27T09:04:37.963Z,2.80
2023-02-27T09:07:04.400Z,2.40
2023-02-27T09:09:30.930Z,4.87
2023-02-27T09:11:57.573Z,6.63
2023-02-27T09:14:24.271Z,7.63
2023-02-27T09:16:50.645Z,3.60
2023-02-27T09:19:17.260Z,3.00
2023-02-27T09:21:43.767Z,5.90
2023-02-27T09:24:19.876Z,4.37
2023-02-27T09:26:47.482Z,2.53
2023-02-27T09:29:14.396Z,2.93
2023-02-27T09:31:40.825Z,3.97
2023-02-27T09:34:07.611Z,2.80
2023-02-27T09:36:34.070Z,2.27
2023-02-27T09:39:00.525Z,2.57
2023-02-27T09:41:57.617Z,2.27
2023-02-27T09:44:45.136Z,2.07
2023-02-27T09:47:16.831Z,1.50
2023-02-27T09:50:11.797Z,3.97
2023-02-27T09:52:39.439Z,1.50
2023-02-27T09:55:15.694Z,3.77
2023-02-27T09:58:01.674Z,0.90
2023-02-27T10:00:38.133Z,2.90
2023-02-27T10:03:04.524Z,1.27
2023-02-27T10:05:49.090Z,2.97
2023-02-27T10:08:32.725Z,2.00
2023-02-27T10:11:04.834Z,0.83
2023-02-27T10:13:49.766Z,1.20
2023-02-27T10:16:20.733Z,1.13
2023-02-27T10:18:55.669Z,1.63
2023-02-27T10:21:33.411Z,1.20
2023-02-27T10:24:23.920Z,1.03
2023-02-27T10:26:54.794Z,1.43
2023-02-27T10:29:40.047Z,0.93
2023-02-27T10:32:14.874Z,1.53
2023-02-27T10:34:44.181Z,0.80
2023-02-27T10:37:15.163Z,3.20
2023-02-27T10:39:47.545Z,1.17
2023-02-27T10:42:16.254Z,0.77
2023-02-27T10:44:42.754Z,1.00
2023-02-27T10:47:15.425Z,1.10
2023-02-27T10:49:43.257Z,1.80
2023-02-27T10:52:13.933Z,0.70
2023-02-27T10:54:41.731Z,1.33
2023-02-27T10:57:21.802Z,1.00
2023-02-27T11:00:26.438Z,1.20
2023-02-27T11:02:53.012Z,1.00
2023-02-27T11:05:26.413Z,1.37
2023-02-27T11:07:52.993Z,1.23
2023-02-27T11:10:28.771Z,1.20
2023-02-27T11:13:03.316Z,2.50
2023-02-27T11:15:32.668Z,1.17
2023-02-27T11:18:31.164Z,0.97
2023-02-27T11:21:20.000Z,1.63
2023-02-27T11:23:51.805Z,2.30
2023-02-27T11:26:28.134Z,2.47
2023-02-27T11:29:11.567Z,1.60
2023-02-27T11:31:39.639Z,2.37
2023-02-27T11:34:08.261Z,1.80
2023-02-27T11:36:46.857Z,2.23
2023-02-27T11:39:34.677Z,0.90
2023-02-27T11:42:23.626Z,1.70
2023-02-27T11:44:56.270Z,0.87
2023-02-27T11:47:31.386Z,0.87
2023-02-27T11:50:25.779Z,1.73
2023-02-27T11:53:29.751Z,1.40
2023-02-27T11:55:59.900Z,2.23
2023-02-27T11:58:30.193Z,2.80
2023-02-27T12:01:08.094Z,3.40
2023-02-27T12:03:53.377Z,2.47
2023-02-27T12:06:26.418Z,2.57
2023-02-27T12:08:59.098Z,2.00
2023-02-27T12:11:32.836Z,1.60
2023-02-27T12:14:14.509Z,1.73
2023-02-27T12:16:46.332Z,1.50
2023-02-27T12:19:21.246Z,3.17
2023-02-27T12:21:52.104Z,1.93
2023-02-27T12:24:25.633Z,1.47
2023-02-27T12:27:15.910Z,1.40
2023-02-27T12:29:50.412Z,1.10
2023-02-27T12:32:26.078Z,1.00
2023-02-27T12:35:25.994Z,1.30
2023-02-27T12:37:52.906Z,1.33
2023-02-27T12:40:25.579Z,1.60
2023-02-27T12:43:11.554Z,1.07
2023-02-27T12:45:51.832Z,1.60
2023-02-27T12:48:44.383Z,1.20
2023-02-27T12:51:35.172Z,2.23
2023-02-27T12:54:26.867Z,2.93
2023-02-27T12:57:20.578Z,1.33
2023-02-27T12:59:53.611Z,1.53
2023-02-27T13:02:32.271Z,2.10
2023-02-27T13:05:09.472Z,2.20
2023-02-27T13:07:48.828Z,2.50
2023-02-27T13:10:31.730Z,2.63
2023-02-27T13:13:09.666Z,1.93
2023-02-27T13:15:50.969Z,1.67
2023-02-27T13:18:40.194Z,1.40
2023-02-27T13:21:12.679Z,1.30
2023-02-27T13:24:23.968Z,2.27
2023-02-27T13:26:57.569Z,2.57
2023-02-27T13:29:37.098Z,2.17
2023-02-27T13:32:41.342Z,1.40
2023-02-27T13:35:29.164Z,1.43
2023-02-27T13:38:02.364Z,2.30
2023-02-27T13:40:40.681Z,1.53
2023-02-27T13:43:51.729Z,2.63
2023-02-27T13:46:32.859Z,5.07
2023-02-27T13:49:05.088Z,2.13
2023-02-27T13:51:38.301Z,1.63
2023-02-27T13:54:07.645Z,2.87
2023-02-27T13:56:34.159Z,1.30
2023-02-27T13:59:28.992Z,1.20
2023-02-27T14:02:10.683Z,1.77
2023-02-27T14:04:54.944Z,1.27
2023-02-27T14:07:24.094Z,2.13
2023-02-27T14:09:59.878Z,2.53
2023-02-27T14:12:39.165Z,1.30
2023-02-27T14:15:22.721Z,1.67
2023-02-27T14:17:59.625Z,1.67
2023-02-27T14:20:32.550Z,1.20
2023-02-27T14:23:17.120Z,1.63
2023-02-27T14:25:56.757Z,4.57
2023-02-27T14:28:31.291Z,2.00
2023-02-27T14:31:01.084Z,1.93
2023-02-27T14:33:40.646Z,1.70
2023-02-27T14:36:20.121Z,1.50
2023-02-27T14:38:47.320Z,2.40
2023-02-27T14:41:22.182Z,2.47
2023-02-27T14:43:56.770Z,3.00
2023-02-27T14:46:25.200Z,2.00
2023-02-27T14:48:57.406Z,1.43
2023-02-27T14:51:25.232Z,2.00
2023-02-27T14:54:19.404Z,3.53
2023-02-27T14:57:06.484Z,1.90
2023-02-27T14:59:41.639Z,2.40
2023-02-27T15:02:30.620Z,1.73
2023-02-27T15:05:03.458Z,2.67
2023-02-27T15:07:33.208Z,2.80
2023-02-27T15:10:04.405Z,2.60
2023-02-27T15:12:32.242Z,6.10
2023-02-27T15:15:02.238Z,2.80
2023-02-27T15:17:50.862Z,5.67
2023-02-27T15:20:32.913Z,2.30
2023-02-27T15:23:01.492Z,4.77
2023-02-27T15:25:34.416Z,1.70
2023-02-27T15:28:04.047Z,1.63
2023-02-27T15:30:31.143Z,1.50
2023-02-27T15:32:59.230Z,1.53
2023-02-27T15:35:35.065Z,1.87
2023-02-27T15:38:02.482Z,4.43
2023-02-27T15:40:31.910Z,3.13
2023-02-27T15:43:00.029Z,3.17
2023-02-27T15:45:34.480Z,3.57
2023-02-27T15:48:01.752Z,4.70
2023-02-27T15:50:36.881Z,3.30
2023-02-27T15:53:05.490Z,1.57
2023-02-27T15:55:35.389Z,2.13
2023-02-27T15:58:03.719Z,2.03
2023-02-27T16:00:34.480Z,1.83
2023-02-27T16:03:01.291Z,3.27
2023-02-27T16:05:33.694Z,1.70
2023-02-27T16:08:02.457Z,1.27
2023-02-27T16:10:35.461Z,1.13
2023-02-27T16:13:25.600Z,2.13
2023-02-27T16:16:06.866Z,1.40
2023-02-27T16:18:35.302Z,1.63
2023-02-27T16:21:12.955Z,1.40
2023-02-27T16:23:39.851Z,2.20
2023-02-27T16:26:08.941Z,4.37
2023-02-27T16:29:03.810Z,2.97
2023-02-27T16:31:40.778Z,3.97
2023-02-27T16:34:13.090Z,3.03
2023-02-27T16:36:53.257Z,2.37
2023-02-27T16:39:19.728Z,2.87
2023-02-27T16:41:46.190Z,2.97
2023-02-27T16:44:12.566Z,2.07
2023-02-27T16:46:39.050Z,1.40
2023-02-27T16:49:19.178Z,3.70
2023-02-27T16:51:46.700Z,3.27
2023-02-27T16:54:13.951Z,4.33
2023-02-27T16:56:40.908Z,2.70
2023-02-27T16:59:07.699Z,3.80
2023-02-27T17:01:34.756Z,3.17
2023-02-27T17:04:01.390Z,1.40
2023-02-27T17:06:28.369Z,2.37
2023-02-27T17:08:55.931Z,4.10
2023-02-27T17:11:22.332Z,3.30
2023-02-27T17:13:48.720Z,4.03
2023-02-27T17:16:15.861Z,2.27
2023-02-27T17:18:42.260Z,2.03
2023-02-27T17:21:08.600Z,2.00
2023-02-27T17:23:35.305Z,4.70
2023-02-27T17:26:01.793Z,1.57
2023-02-27T17:28:28.178Z,4.23
2023-02-27T17:30:54.744Z,3.10
2023-02-27T17:33:21.168Z,1.83
2023-02-27T17:35:48.269Z,4.43
2023-02-27T17:38:14.619Z,5.40
2023-02-27T17:40:41.068Z,6.73
2023-02-27T17:43:07.638Z,2.10
2023-02-27T17:45:34.007Z,6.07
2023-02-27T17:48:00.620Z,2.10
2023-02-27T17:50:27.098Z,4.80
2023-02-27T17:52:53.532Z,2.20
2023-02-27T17:55:20.093Z,2.10
2023-02-27T17:57:46.444Z,2.93
2023-02-27T18:00:15.179Z,3.27
2023-02-27T18:02:44.200Z,2.70
2023-02-27T18:05:10.828Z,3.73
2023-02-27T18:07:37.230Z,4.60
2023-02-27T18:10:05.435Z,4.70
2023-02-27T18:12:32.461Z,2.57
2023-02-27T18:14:58.850Z,6.07
2023-02-27T18:17:25.226Z,2.10
2023-02-27T18:19:51.650Z,2.40
2023-02-27T18:22:18.004Z,3.13
2023-02-27T18:24:44.425Z,2.60
2023-02-27T18:27:11.007Z,3.27
2023-02-27T18:29:37.359Z,5.97
2023-02-27T18:32:04.058Z,4.50
2023-02-27T18:34:30.475Z,7.47
2023-02-27T18:36:58.255Z,4.43
2023-02-27T18:39:24.736Z,5.53
2023-02-27T18:41:51.121Z,6.83
2023-02-27T18:44:17.491Z,6.17
2023-02-27T18:46:43.969Z,4.37
2023-02-27T18:49:10.424Z,7.80
2023-02-27T18:51:37.627Z,4.07
2023-02-27T18:54:05.130Z,8.80
2023-02-27T18:56:32.837Z,6.93
2023-02-27T18:59:04.957Z,6.77
2023-02-27T19:01:34.537Z,8.60
2023-02-27T19:04:05.945Z,8.23
2023-02-27T19:06:34.851Z,7.63
2023-02-27T19:09:04.047Z,10.17
2023-02-27T19:11:35.568Z,4.27
2023-02-27T19:14:04.849Z,7.93
2023-02-27T19:16:32.189Z,3.67
2023-02-27T19:19:00.436Z,5.50
2023-02-27T19:21:27.639Z,5.07
2023-02-27T19:23:54.791Z,7.03
2023-02-27T19:26:21.990Z,6.67
2023-02-27T19:28:53.770Z,7.17
2023-02-27T19:31:22.140Z,3.93
2023-02-27T19:36:46.623Z,3.90
2023-02-27T19:39:13.089Z,6.17
2023-02-27T19:41:39.511Z,4.10
2023-02-27T19:44:06.073Z,6.40
2023-02-27T19:46:34.239Z,3.00
2023-02-27T19:49:04.248Z,8.23
2023-02-27T19:51:30.679Z,6.47
2023-02-27T19:53:58.564Z,5.97
2023-02-27T19:56:27.169Z,3.73
2023-02-27T19:58:54.264Z,4.43
2023-02-27T20:01:26.465Z,3.00
2023-02-27T20:03:53.142Z,5.30
2023-02-27T20:06:23.026Z,5.63
2023-02-27T20:08:50.459Z,7.43
2023-02-27T20:11:17.449Z,5.93
2023-02-27T20:13:44.472Z,6.90
2023-02-27T20:16:15.027Z,6.60
2023-02-27T20:18:42.610Z,3.07
2023-02-27T20:21:18.478Z,9.50
2023-02-27T20:23:46.397Z,11.07
2023-02-27T20:26:20.602Z,5.27
2023-02-27T20:28:48.624Z,7.50
2023-02-27T20:31:18.708Z,4.77
2023-02-27T20:33:46.357Z,4.20
2023-02-27T20:36:13.324Z,4.87
2023-02-27T20:38:40.972Z,9.17
2023-02-27T20:41:16.328Z,7.93
2023-02-27T20:43:43.944Z,9.07
2023-02-27T20:46:13.093Z,6.83
2023-02-27T20:48:39.945Z,5.63
2023-02-27T20:51:13.538Z,7.33
2023-02-27T20:53:41.742Z,10.80
2023-02-27T20:56:09.208Z,3.37
2023-02-27T20:58:36.688Z,5.37
2023-02-27T21:01:08.208Z,7.00
2023-02-27T21:03:38.585Z,8.27
2023-02-27T21:06:06.751Z,5.23
2023-02-27T21:08:35.550Z,4.53
2023-02-27T21:11:07.214Z,5.43
2023-02-27T21:13:33.564Z,7.83
2023-02-27T21:16:00.417Z,4.10
2023-02-27T21:18:26.883Z,3.27
2023-02-27T21:20:53.388Z,5.00
2023-02-27T21:23:19.711Z,4.10
2023-02-27T21:25:46.067Z,4.00
2023-02-27T21:28:14.138Z,3.37
2023-02-27T21:30:41.302Z,3.93
2023-02-27T21:33:07.658Z,4.27
2023-02-27T21:35:34.075Z,2.13
2023-02-27T21:38:01.428Z,3.13
2023-02-27T21:40:28.108Z,2.77
2023-02-27T21:42:54.436Z,2.93
2023-02-27T21:45:20.996Z,2.10
2023-02-27T21:47:47.363Z,2.77
2023-02-27T21:50:17.119Z,4.40
2023-02-27T21:52:44.316Z,2.83
2023-02-27T21:55:12.139Z,3.17
2023-02-27T21:57:39.787Z,5.57
2023-02-27T22:00:11.051Z,3.53
2023-02-27T22:02:39.164Z,3.57
2023-02-27T22:05:06.872Z,3.97
2023-02-27T22:07:33.239Z,11.33
2023-02-27T22:09:59.625Z,6.17
2023-02-27T22:12:26.898Z,4.10
2023-02-27T22:14:53.270Z,5.33
2023-02-27T22:17:19.583Z,4.30
2023-02-27T22:19:45.897Z,6.17
2023-02-27T22:22:12.338Z,7.00
2023-02-27T22:24:38.735Z,10.53
2023-02-27T22:27:05.324Z,7.90
2023-02-27T22:29:31.788Z,7.97
2023-02-27T22:31:58.193Z,8.13
2023-02-27T22:34:24.546Z,6.40
2023-02-27T22:36:52.567Z,7.17
2023-02-27T22:39:19.587Z,5.73
2023-02-27T22:41:46.245Z,6.10
2023-02-27T22:44:14.417Z,5.70
2023-02-27T22:46:44.083Z,5.60
2023-02-27T22:49:14.225Z,6.17
2023-02-27T22:51:41.161Z,5.20
2023-02-27T22:54:10.097Z,7.67
2023-02-27T22:56:36.704Z,7.00
2023-02-27T22:59:04.584Z,5.83
2023-02-27T23:01:33.232Z,5.70
2023-02-27T23:04:03.016Z,4.07
2023-02-27T23:06:32.119Z,4.90
2023-02-27T23:08:59.464Z,6.00
2023-02-27T23:11:26.497Z,4.67
2023-02-27T23:13:53.077Z,5.30
2023-02-27T23:16:20.012Z,4.23
2023-02-27T23:18:47.911Z,4.43
2023-02-27T23:21:20.162Z,4.00
2023-02-27T23:23:47.653Z,6.60
2023-02-27T23:26:14.458Z,4.17
2023-02-27T23:28:41.538Z,5.77
2023-02-27T23:31:08.813Z,3.93
2023-02-27T23:33:35.509Z,5.77
2023-02-27T23:36:02.261Z,6.43
2023-02-27T23:38:29.358Z,4.60
2023-02-27T23:40:56.246Z,4.60
2023-02-27T23:43:23.287Z,7.30
2023-02-27T23:45:49.966Z,6.57
2023-02-27T23:48:16.373Z,5.37
2023-02-27T23:50:44.529Z,4.20
2023-02-27T23:53:13.487Z,5.47
2023-02-27T23:55:40.581Z,5.87
2023-02-27T23:58:09.686Z,4.57
